Time;durP1;ratioP1;P1;durP2;ratioP2;P2;SDS_P1;SDS_P2;PMS_P1;PMS_P2;Temp;Humidity;BMP_temperature;BMP_pressure;BME280_temperature;BME280_humidity;BME280_pressure;Samples;Min_cycle;Max_cycle;Signal;HPM_P1;HPM_P2
2021/04/07 00:01:18;;;;;;;0.52;0.52;;;0.00;99.90;;;;;;6088076;23;20175;-82
2021/04/07 00:03:44;;;;;;;0.50;0.50;;;0.00;99.90;;;;;;6088075;23;20179;-82
2021/04/07 00:06:10;;;;;;;0.50;0.50;;;0.00;99.90;;;;;;6087731;23;20183;-82
2021/04/07 00:08:36;;;;;;;0.50;0.50;;;0.40;99.90;;;;;;6087706;23;20229;-82
2021/04/07 00:11:03;;;;;;;0.50;0.50;;;0.00;99.90;;;;;;6091692;23;20278;-81
2021/04/07 00:13:29;;;;;;;0.50;0.50;;;-0.10;99.90;;;;;;6096460;23;20214;-82
2021/04/07 00:15:55;;;;;;;0.50;0.50;;;0.40;99.90;;;;;;6088967;23;20194;-81
2021/04/07 00:18:22;;;;;;;0.50;0.50;;;0.00;99.90;;;;;;6088894;23;20189;-81
2021/04/07 00:20:49;;;;;;;0.60;0.60;;;-0.10;99.90;;;;;;6089277;23;20190;-81
2021/04/07 00:23:15;;;;;;;0.50;0.50;;;-0.10;99.90;;;;;;6089629;23;20654;-81
2021/04/07 00:25:42;;;;;;;0.50;0.50;;;-0.10;99.90;;;;;;6089107;23;20242;-81
2021/04/07 00:28:10;;;;;;;0.50;0.50;;;0.10;99.90;;;;;;6089028;23;20351;-81
2021/04/07 00:30:38;;;;;;;0.50;0.50;;;0.00;99.90;;;;;;6089323;23;20250;-81
2021/04/07 00:33:05;;;;;;;0.52;0.52;;;0.00;99.90;;;;;;6089836;23;20183;-81
2021/04/07 00:35:32;;;;;;;0.50;0.50;;;0.40;99.90;;;;;;6090103;23;20666;-81
2021/04/07 00:37:59;;;;;;;0.50;0.50;;;0.00;99.90;;;;;;6089837;23;20184;-80
2021/04/07 00:40:27;;;;;;;0.50;0.50;;;0.00;99.90;;;;;;6088760;23;20183;-82
2021/04/07 00:42:54;;;;;;;0.50;0.50;;;0.00;99.90;;;;;;6089265;23;20183;-81
2021/04/07 00:45:22;;;;;;;0.50;0.50;;;0.00;99.90;;;;;;6088880;23;20179;-81
2021/04/07 00:47:49;;;;;;;0.55;0.55;;;0.00;99.90;;;;;;6089639;23;20586;-81
2021/04/07 00:50:16;;;;;;;0.50;0.50;;;0.00;99.90;;;;;;6089553;23;20198;-82
2021/04/07 00:52:44;;;;;;;0.50;0.50;;;0.00;99.90;;;;;;6089005;23;20203;-83
2021/04/07 00:55:12;;;;;;;0.50;0.50;;;0.00;99.90;;;;;;6089260;23;20183;-82
2021/04/07 00:57:39;;;;;;;0.60;0.60;;;-0.10;99.90;;;;;;6088752;23;20207;-83
2021/04/07 01:00:07;;;;;;;0.50;0.50;;;-0.10;99.90;;;;;;6088974;23;20209;-82
2021/04/07 01:02:33;;;;;;;0.50;0.50;;;-0.20;99.90;;;;;;6088944;23;20179;-82
2021/04/07 01:05:00;;;;;;;0.50;0.50;;;-0.20;99.90;;;;;;6089616;23;20183;-82
2021/04/07 01:07:26;;;;;;;0.50;0.50;;;-0.20;99.90;;;;;;6088309;23;20618;-82
2021/04/07 01:09:53;;;;;;;0.50;0.50;;;-0.30;99.90;;;;;;6088616;23;20179;-82
2021/04/07 01:12:20;;;;;;;0.60;0.60;;;-0.30;99.90;;;;;;6088078;23;20636;-82
2021/04/07 01:14:46;;;;;;;0.50;0.50;;;-0.30;99.90;;;;;;6089130;23;20175;-82
2021/04/07 01:17:13;;;;;;;0.50;0.50;;;-0.30;99.90;;;;;;6089199;23;20178;-83
2021/04/07 01:19:41;;;;;;;0.50;0.50;;;-0.20;99.90;;;;;;6088876;23;20218;-83
2021/04/07 01:22:08;;;;;;;0.50;0.50;;;-0.30;99.90;;;;;;6089189;23;20392;-82
2021/04/07 01:24:36;;;;;;;0.50;0.50;;;-0.20;99.90;;;;;;6088869;23;20233;-83
2021/04/07 01:27:03;;;;;;;0.50;0.50;;;-0.20;99.90;;;;;;6089260;23;20183;-82
2021/04/07 01:29:29;;;;;;;0.50;0.50;;;-0.20;99.90;;;;;;6088667;23;20714;-83
2021/04/07 01:31:56;;;;;;;0.50;0.50;;;-0.30;99.90;;;;;;6088801;23;20199;-82
2021/04/07 01:34:24;;;;;;;0.50;0.50;;;-0.20;99.90;;;;;;6088883;23;20186;-83
2021/04/07 01:36:50;;;;;;;0.50;0.50;;;-0.20;99.90;;;;;;6088771;23;20662;-83
2021/04/07 01:39:18;;;;;;;0.50;0.50;;;-0.10;99.90;;;;;;6090438;23;20185;-82
2021/04/07 01:41:46;;;;;;;0.50;0.50;;;-0.10;99.90;;;;;;6089502;23;20183;-82
2021/04/07 01:44:15;;;;;;;0.50;0.50;;;-0.10;99.90;;;;;;6088783;23;20179;-82
2021/04/07 01:46:42;;;;;;;0.50;0.50;;;-0.10;99.90;;;;;;6088704;23;20191;-83
2021/04/07 01:49:10;;;;;;;0.50;0.50;;;-0.10;99.90;;;;;;6089158;23;20237;-83
2021/04/07 01:51:37;;;;;;;0.47;0.47;;;-0.30;99.90;;;;;;6088871;23;20282;-83
2021/04/07 01:54:05;;;;;;;0.50;0.50;;;-0.20;99.90;;;;;;6089220;23;20529;-82
2021/04/07 01:56:32;;;;;;;0.50;0.50;;;-0.30;99.90;;;;;;6089809;23;20249;-82
2021/04/07 01:59:01;;;;;;;0.50;0.50;;;-0.30;99.90;;;;;;6089244;23;20183;-83
2021/04/07 02:01:28;;;;;;;0.50;0.50;;;-0.40;99.90;;;;;;6089291;23;20556;-82
2021/04/07 02:03:54;;;;;;;0.50;0.50;;;-0.40;99.90;;;;;;6089256;23;20179;-82
2021/04/07 02:06:21;;;;;;;0.50;0.50;;;-0.20;99.90;;;;;;6088852;23;20210;-82
2021/04/07 02:08:48;;;;;;;0.50;0.50;;;-0.40;99.90;;;;;;6089634;23;20205;-83
2021/04/07 02:11:14;;;;;;;0.50;0.50;;;-0.40;99.90;;;;;;6089754;23;20257;-82
2021/04/07 02:13:41;;;;;;;0.57;0.57;;;-0.40;99.90;;;;;;6089857;23;20190;-82
2021/04/07 02:16:12;;;;;;;0.55;0.55;;;-0.50;99.90;;;;;;6089561;23;20179;-82
2021/04/07 02:18:38;;;;;;;0.60;0.60;;;-0.40;99.90;;;;;;6089372;23;20273;-83
2021/04/07 02:21:05;;;;;;;0.50;0.50;;;-0.50;99.90;;;;;;6088789;23;20179;-82
2021/04/07 02:23:31;;;;;;;0.50;0.50;;;-0.50;99.90;;;;;;6088831;23;20183;-83
2021/04/07 02:25:57;;;;;;;0.50;0.50;;;-0.60;99.90;;;;;;6088436;23;20179;-83
2021/04/07 02:28:24;;;;;;;0.60;0.60;;;-0.40;99.90;;;;;;6088261;23;20179;-84
2021/04/07 02:30:50;;;;;;;0.60;0.60;;;-0.40;99.90;;;;;;6087848;23;20678;-83
2021/04/07 02:33:17;;;;;;;0.50;0.50;;;-0.40;99.90;;;;;;6088738;23;20201;-83
2021/04/07 02:35:44;;;;;;;0.50;0.50;;;-0.40;99.90;;;;;;6088843;23;20183;-84
2021/04/07 02:38:11;;;;;;;0.50;0.50;;;-0.40;99.90;;;;;;6087999;23;20187;-83
2021/04/07 02:40:37;;;;;;;0.50;0.50;;;-0.40;99.90;;;;;;6088509;23;20323;-81
2021/04/07 02:43:04;;;;;;;0.50;0.50;;;-0.40;99.90;;;;;;6087525;23;20550;-82
2021/04/07 02:45:30;;;;;;;0.50;0.50;;;-0.30;99.90;;;;;;6087896;23;20229;-82
2021/04/07 02:47:57;;;;;;;0.50;0.50;;;-0.30;99.90;;;;;;6087982;23;20179;-82
2021/04/07 02:50:24;;;;;;;0.60;0.60;;;-0.30;99.90;;;;;;6087094;23;20600;-82
2021/04/07 02:52:50;;;;;;;0.50;0.50;;;-0.30;99.90;;;;;;6087746;23;20237;-82
2021/04/07 02:55:16;;;;;;;0.60;0.60;;;-0.40;99.90;;;;;;6088388;23;20190;-82
2021/04/07 02:57:43;;;;;;;0.50;0.50;;;-0.10;99.90;;;;;;6087215;23;20668;-82
2021/04/07 03:00:10;;;;;;;0.50;0.50;;;-0.30;99.90;;;;;;6087250;23;20325;-82
2021/04/07 03:02:36;;;;;;;0.50;0.50;;;-0.40;99.90;;;;;;6087906;23;20186;-82
2021/04/07 03:05:03;;;;;;;0.50;0.50;;;-0.30;99.90;;;;;;6089295;23;20179;-82
2021/04/07 03:07:30;;;;;;;0.50;0.50;;;-0.40;99.90;;;;;;6089445;23;20632;-83
2021/04/07 03:09:57;;;;;;;0.50;0.50;;;-0.40;99.90;;;;;;6088134;23;20175;-82
2021/04/07 03:12:23;;;;;;;0.55;0.55;;;-0.40;99.90;;;;;;6088384;23;20175;-83
2021/04/07 03:14:50;;;;;;;0.60;0.60;;;-0.40;99.90;;;;;;6088902;23;20186;-82
2021/04/07 03:17:16;;;;;;;0.50;0.50;;;-0.50;99.90;;;;;;6089840;23;20190;-83
2021/04/07 03:19:42;;;;;;;0.50;0.50;;;-0.50;99.90;;;;;;6089208;23;20750;-82
2021/04/07 03:22:08;;;;;;;0.50;0.50;;;-0.50;99.90;;;;;;6089029;23;20445;-82
2021/04/07 03:24:35;;;;;;;0.50;0.50;;;-0.50;99.90;;;;;;6089309;23;20179;-83
2021/04/07 03:27:01;;;;;;;0.60;0.60;;;-0.50;99.90;;;;;;6089831;23;20185;-82
2021/04/07 03:29:28;;;;;;;0.52;0.52;;;-0.60;99.90;;;;;;6089214;23;20184;-82
2021/04/07 03:31:54;;;;;;;0.52;0.52;;;-0.50;99.90;;;;;;6088394;23;20444;-82
2021/04/07 03:34:20;;;;;;;0.50;0.50;;;-0.50;99.90;;;;;;6088698;23;20186;-82
2021/04/07 03:36:46;;;;;;;0.50;0.50;;;-0.50;99.90;;;;;;6089272;23;20183;-83
2021/04/07 03:39:12;;;;;;;0.60;0.60;;;-0.50;99.90;;;;;;6089171;23;20512;-82
2021/04/07 03:41:40;;;;;;;0.50;0.50;;;-0.50;99.90;;;;;;6088833;23;20206;-82
2021/04/07 03:44:06;;;;;;;0.50;0.50;;;-0.60;99.90;;;;;;6088301;23;20194;-83
2021/04/07 03:46:32;;;;;;;0.50;0.50;;;-0.50;99.90;;;;;;6089061;23;20183;-82
2021/04/07 03:48:58;;;;;;;0.50;0.50;;;-0.10;99.90;;;;;;6089213;23;20183;-82
2021/04/07 03:51:24;;;;;;;0.50;0.50;;;-0.60;99.90;;;;;;6088369;23;20207;-82
2021/04/07 03:53:51;;;;;;;0.50;0.50;;;-0.60;99.90;;;;;;6088519;23;20179;-82
2021/04/07 03:56:17;;;;;;;0.60;0.60;;;-0.60;99.90;;;;;;6088372;23;20207;-82
2021/04/07 03:58:44;;;;;;;0.60;0.60;;;-0.60;99.90;;;;;;6088556;23;20240;-82
2021/04/07 04:01:10;;;;;;;0.50;0.50;;;-0.60;99.90;;;;;;6088243;23;20198;-82
2021/04/07 04:03:37;;;;;;;0.50;0.50;;;-0.60;99.90;;;;;;6088277;23;20236;-81
2021/04/07 04:06:03;;;;;;;0.60;0.60;;;-0.60;99.90;;;;;;6088007;23;20623;-83
2021/04/07 04:08:30;;;;;;;0.50;0.50;;;-0.70;99.90;;;;;;6088491;23;20202;-82
2021/04/07 04:10:56;;;;;;;0.50;0.50;;;-0.70;99.90;;;;;;6087994;23;20222;-82
2021/04/07 04:13:23;;;;;;;0.50;0.50;;;-0.70;99.90;;;;;;6087802;23;20179;-83
2021/04/07 04:15:50;;;;;;;0.50;0.50;;;-0.70;99.90;;;;;;6088127;23;20242;-82
2021/04/07 04:18:16;;;;;;;0.52;0.52;;;-0.70;99.90;;;;;;6088686;23;20186;-82
2021/04/07 04:20:42;;;;;;;0.60;0.60;;;-0.70;99.90;;;;;;6088476;23;20179;-83
2021/04/07 04:23:08;;;;;;;0.50;0.50;;;-0.70;99.90;;;;;;6088091;23;20509;-83
2021/04/07 04:25:35;;;;;;;0.50;0.50;;;-0.70;99.90;;;;;;6087952;23;20237;-81
2021/04/07 04:28:01;;;;;;;0.50;0.50;;;-0.80;99.90;;;;;;6088433;23;20179;-82
2021/04/07 04:30:28;;;;;;;0.50;0.50;;;-0.80;99.90;;;;;;6088151;23;20274;-82
2021/04/07 04:32:55;;;;;;;0.50;0.50;;;-0.80;99.90;;;;;;6087969;23;20184;-82
2021/04/07 04:35:21;;;;;;;0.60;0.60;;;-0.80;99.90;;;;;;6088141;23;20232;-83
2021/04/07 04:37:48;;;;;;;0.50;0.50;;;-0.80;99.90;;;;;;6088585;23;20186;-83
2021/04/07 04:40:15;;;;;;;0.50;0.50;;;-0.80;99.90;;;;;;6088517;23;20183;-83
2021/04/07 04:42:42;;;;;;;0.60;0.60;;;-0.80;99.90;;;;;;6087964;23;20631;-83
2021/04/07 04:45:09;;;;;;;0.50;0.50;;;-0.80;99.90;;;;;;6088149;23;20537;-83
2021/04/07 04:47:36;;;;;;;0.50;0.50;;;-0.80;99.90;;;;;;6088323;23;20179;-83
2021/04/07 04:50:04;;;;;;;0.57;0.57;;;-0.80;99.90;;;;;;6088075;23;20663;-83
2021/04/07 04:52:30;;;;;;;0.50;0.50;;;-0.90;99.90;;;;;;6088466;23;20257;-83
2021/04/07 04:54:57;;;;;;;0.50;0.50;;;-0.80;99.90;;;;;;6087885;23;20202;-84
2021/04/07 04:57:23;;;;;;;0.57;0.57;;;-0.80;99.90;;;;;;6087925;23;20210;-85
2021/04/07 04:59:49;;;;;;;0.50;0.50;;;-0.80;99.90;;;;;;6088125;23;20187;-83
2021/04/07 05:02:15;;;;;;;0.50;0.50;;;-0.70;99.90;;;;;;6088345;23;20518;-83
2021/04/07 05:04:42;;;;;;;0.60;0.60;;;-0.80;99.90;;;;;;6088906;23;20194;-84
2021/04/07 05:07:09;;;;;;;0.50;0.50;;;-0.80;99.90;;;;;;6089188;23;20206;-83
2021/04/07 05:09:35;;;;;;;0.50;0.50;;;-0.80;99.90;;;;;;6088542;23;20241;-88
2021/04/07 05:12:01;;;;;;;0.57;0.57;;;-0.40;99.90;;;;;;6093142;23;20199;-84
2021/04/07 05:14:28;;;;;;;0.50;0.50;;;-0.80;99.90;;;;;;6091351;23;20183;-85
2021/04/07 05:16:54;;;;;;;0.60;0.60;;;-0.80;99.90;;;;;;6091140;23;20179;-85
2021/04/07 05:19:20;;;;;;;0.60;0.60;;;-0.80;99.90;;;;;;6090718;23;20190;-84
2021/04/07 05:21:47;;;;;;;0.50;0.50;;;-0.80;99.90;;;;;;6091586;23;20175;-84
2021/04/07 05:24:13;;;;;;;0.50;0.50;;;-0.70;99.90;;;;;;6090629;23;20183;-84
2021/04/07 05:26:40;;;;;;;0.50;0.50;;;-0.70;99.90;;;;;;6091673;23;20179;-85
2021/04/07 05:29:06;;;;;;;0.50;0.50;;;-0.70;99.90;;;;;;6091755;23;20624;-84
2021/04/07 05:31:33;;;;;;;0.50;0.50;;;-0.70;99.90;;;;;;6092931;23;20273;-84
2021/04/07 05:33:59;;;;;;;0.60;0.60;;;-0.70;99.90;;;;;;6093132;23;20187;-85
2021/04/07 05:36:26;;;;;;;0.60;0.60;;;-0.60;99.90;;;;;;6092361;23;20194;-84
2021/04/07 05:38:52;;;;;;;0.57;0.57;;;-0.60;99.90;;;;;;6091087;23;20508;-85
2021/04/07 05:41:19;;;;;;;0.52;0.52;;;-0.60;99.90;;;;;;6091818;23;20191;-85
2021/04/07 05:43:45;;;;;;;0.50;0.50;;;-0.40;99.90;;;;;;6093454;23;20179;-84
2021/04/07 05:46:13;;;;;;;0.50;0.50;;;-0.50;99.90;;;;;;6094120;23;20516;-85
2021/04/07 05:48:39;;;;;;;0.50;0.50;;;-0.50;99.90;;;;;;6093684;23;20182;-84
2021/04/07 05:51:06;;;;;;;0.50;0.50;;;-0.40;99.90;;;;;;6093097;23;20257;-84
2021/04/07 05:53:33;;;;;;;0.50;0.50;;;-0.40;99.90;;;;;;6097693;23;20210;-86
2021/04/07 05:55:59;;;;;;;0.50;0.50;;;-0.40;99.90;;;;;;6097282;23;20206;-86
2021/04/07 05:58:28;;;;;;;0.60;0.60;;;-0.30;99.90;;;;;;6100094;23;20164;-85
2021/04/07 06:00:55;;;;;;;0.60;0.60;;;-0.30;99.90;;;;;;6090086;23;20176;-86
2021/04/07 06:03:21;;;;;;;0.60;0.60;;;-0.30;99.90;;;;;;6100142;23;20269;-86
2021/04/07 06:05:49;;;;;;;0.50;0.50;;;-0.20;99.90;;;;;;6101095;23;20172;-86
2021/04/07 06:08:17;;;;;;;0.50;0.50;;;-0.40;99.90;;;;;;6107079;23;20243;-86
2021/04/07 06:10:44;;;;;;;0.50;0.50;;;-0.20;99.90;;;;;;6104128;23;20205;-84
2021/04/07 06:13:11;;;;;;;0.50;0.50;;;-0.20;99.90;;;;;;6097785;23;20503;-85
2021/04/07 06:15:38;;;;;;;0.55;0.55;;;-0.20;99.90;;;;;;6097969;23;20187;-85
2021/04/07 06:18:07;;;;;;;0.60;0.60;;;-0.20;99.90;;;;;;6095681;23;20183;-84
2021/04/07 06:20:35;;;;;;;0.60;0.60;;;-0.20;99.90;;;;;;6097156;23;20229;-84
2021/04/07 06:23:04;;;;;;;0.50;0.50;;;0.10;99.90;;;;;;6098779;23;20636;-85
2021/04/07 06:25:31;;;;;;;0.60;0.60;;;-0.10;99.90;;;;;;6100401;23;20183;-85
2021/04/07 06:27:59;;;;;;;0.57;0.57;;;0.00;99.90;;;;;;6104249;23;20226;-84
2021/04/07 06:30:41;;;;;;;0.60;0.60;;;-0.10;99.90;;;;;;6103774;23;20202;-86
2021/04/07 06:33:09;;;;;;;0.50;0.50;;;0.00;99.90;;;;;;6101484;23;20469;-85
2021/04/07 06:35:35;;;;;;;0.50;0.50;;;0.00;99.90;;;;;;6101918;23;20175;-85
2021/04/07 06:38:03;;;;;;;0.57;0.57;;;0.00;99.90;;;;;;6101170;23;20205;-86
2021/04/07 06:40:30;;;;;;;0.50;0.50;;;0.00;99.90;;;;;;6097571;23;20187;-86
2021/04/07 06:42:58;;;;;;;0.55;0.55;;;0.10;99.90;;;;;;6102769;23;20182;-86
2021/04/07 06:45:25;;;;;;;0.50;0.50;;;-0.40;99.90;;;;;;6100471;23;20291;-85
2021/04/07 06:47:53;;;;;;;0.60;0.60;;;0.10;99.90;;;;;;6100054;23;20187;-85
2021/04/07 06:50:20;;;;;;;0.50;0.50;;;0.10;99.90;;;;;;6104788;23;20640;-87
2021/04/07 06:52:49;;;;;;;0.50;0.50;;;0.10;99.90;;;;;;6106175;23;20183;-86
2021/04/07 06:55:17;;;;;;;0.50;0.50;;;0.10;99.90;;;;;;6105650;23;20266;-85
2021/04/07 06:57:46;;;;;;;0.50;0.50;;;0.10;99.90;;;;;;6104852;23;20210;-85
2021/04/07 07:00:16;;;;;;;0.60;0.60;;;0.10;99.90;;;;;;6110319;23;20167;-85
2021/04/07 07:02:43;;;;;;;0.60;0.60;;;0.10;99.90;;;;;;6099167;23;20175;-89
2021/04/07 07:05:16;;;;;;;0.50;0.50;;;0.10;99.90;;;;;;6096954;23;20544;-83
2021/04/07 07:07:43;;;;;;;0.50;0.50;;;0.10;99.90;;;;;;6103214;23;20592;-83
2021/04/07 07:10:10;;;;;;;0.60;0.60;;;0.20;99.90;;;;;;6098019;23;20314;-83
2021/04/07 07:12:37;;;;;;;0.50;0.50;;;0.10;99.90;;;;;;6088440;23;20209;-82
2021/04/07 07:15:05;;;;;;;0.50;0.50;;;0.20;99.90;;;;;;6092213;23;20213;-88
2021/04/07 07:17:33;;;;;;;0.55;0.55;;;0.10;99.90;;;;;;6092345;23;20206;-83
2021/04/07 07:20:03;;;;;;;0.50;0.50;;;0.10;99.90;;;;;;6094425;23;20237;-81
2021/04/07 07:23:06;;;;;;;0.50;0.50;;;0.20;99.90;;;;;;6097370;23;20624;-85
2021/04/07 07:25:34;;;;;;;0.60;0.60;;;0.10;99.90;;;;;;6090438;23;20183;-84
2021/04/07 07:28:02;;;;;;;0.57;0.57;;;-0.10;99.90;;;;;;6094130;23;20190;-82
2021/04/07 07:30:42;;;;;;;0.50;0.50;;;1.30;99.90;;;;;;6093692;23;20237;-79
2021/04/07 07:33:16;;;;;;;0.52;0.52;;;0.10;99.90;;;;;;6088083;23;20367;-80
2021/04/07 07:35:43;;;;;;;0.57;0.57;;;0.10;99.90;;;;;;6087966;23;20231;-79
2021/04/07 07:38:09;;;;;;;0.55;0.55;;;0.00;99.90;;;;;;6088446;23;20183;-83
2021/04/07 07:40:36;;;;;;;0.50;0.50;;;0.20;99.90;;;;;;6087656;23;20678;-83
2021/04/07 07:43:04;;;;;;;0.60;0.60;;;0.20;99.90;;;;;;6088367;23;20726;-83
2021/04/07 07:45:36;;;;;;;0.55;0.55;;;0.20;99.90;;;;;;6087641;23;20183;-82
2021/04/07 07:48:11;;;;;;;0.60;0.60;;;0.20;99.90;;;;;;6088044;23;20164;-82
2021/04/07 07:50:41;;;;;;;0.57;0.57;;;0.20;99.90;;;;;;6092238;23;20160;-86
2021/04/07 07:53:18;;;;;;;0.50;0.50;;;0.20;99.90;;;;;;6092216;23;20228;-85
2021/04/07 07:55:49;;;;;;;0.50;0.50;;;-1.10;99.90;;;;;;6091310;23;20203;-84
2021/04/07 07:58:16;;;;;;;0.50;0.50;;;0.30;99.90;;;;;;6097720;23;20164;-86
2021/04/07 08:00:45;;;;;;;0.50;0.50;;;-0.30;99.90;;;;;;6089281;23;20247;-84
2021/04/07 08:03:20;;;;;;;0.50;0.50;;;0.30;99.90;;;;;;6088619;23;20277;-84
2021/04/07 08:05:47;;;;;;;0.50;0.50;;;0.40;99.90;;;;;;6091660;23;20173;-87
2021/04/07 08:08:13;;;;;;;0.50;0.50;;;0.50;99.90;;;;;;6090479;23;20662;-83
2021/04/07 08:10:40;;;;;;;0.60;0.60;;;0.40;99.90;;;;;;6093102;23;20715;-82
2021/04/07 08:13:10;;;;;;;0.50;0.50;;;0.40;99.90;;;;;;6092056;23;20697;-82
2021/04/07 08:15:37;;;;;;;0.50;0.50;;;0.30;99.90;;;;;;6091175;23;20215;-80
2021/04/07 08:18:06;;;;;;;0.50;0.50;;;0.50;99.90;;;;;;6089520;23;20183;-83
2021/04/07 08:20:33;;;;;;;0.50;0.50;;;0.50;99.90;;;;;;6087030;23;20233;-83
2021/04/07 08:23:01;;;;;;;0.60;0.60;;;0.50;99.90;;;;;;6089481;23;20187;-83
2021/04/07 08:25:27;;;;;;;0.50;0.50;;;0.50;99.90;;;;;;6089430;23;20180;-83
2021/04/07 08:27:55;;;;;;;0.50;0.50;;;0.50;99.90;;;;;;6088906;23;20183;-83
2021/04/07 08:30:24;;;;;;;0.50;0.50;;;0.50;99.90;;;;;;6089047;23;20179;-82
2021/04/07 08:32:53;;;;;;;0.50;0.50;;;0.60;99.90;;;;;;6088306;23;20179;-82
2021/04/07 08:35:20;;;;;;;0.50;0.50;;;0.60;99.90;;;;;;6088405;23;20191;-83
2021/04/07 08:37:56;;;;;;;0.50;0.50;;;0.60;99.90;;;;;;6088791;23;20179;-82
2021/04/07 08:40:24;;;;;;;0.50;0.50;;;0.60;99.90;;;;;;6087498;23;20639;-82
2021/04/07 08:42:51;;;;;;;0.50;0.50;;;0.70;99.90;;;;;;6088258;23;20179;-82
2021/04/07 08:45:17;;;;;;;0.60;0.60;;;0.90;99.90;;;;;;6088183;23;20241;-82
2021/04/07 08:47:54;;;;;;;0.50;0.50;;;0.50;99.90;;;;;;6088328;23;20190;-83
2021/04/07 08:50:27;;;;;;;0.50;0.50;;;0.60;99.90;;;;;;6088465;23;20213;-82
2021/04/07 08:52:54;;;;;;;0.50;0.50;;;0.70;99.90;;;;;;6087782;23;20164;-83
2021/04/07 08:55:25;;;;;;;0.50;0.50;;;0.80;99.90;;;;;;6088317;23;20183;-82
2021/04/07 08:58:02;;;;;;;0.60;0.60;;;0.90;99.90;;;;;;6088623;23;20168;-82
2021/04/07 09:00:30;;;;;;;0.50;0.50;;;1.00;99.90;;;;;;6086413;23;20183;-83
2021/04/07 09:02:59;;;;;;;0.60;0.60;;;1.00;99.90;;;;;;6085880;23;20179;-82
2021/04/07 09:05:32;;;;;;;0.50;0.50;;;1.10;99.90;;;;;;6089076;23;20660;-83
2021/04/07 09:08:00;;;;;;;0.50;0.50;;;1.10;99.90;;;;;;6085025;23;20233;-83
2021/04/07 09:10:37;;;;;;;0.50;0.50;;;1.10;99.90;;;;;;6099236;23;20187;-84
2021/04/07 09:13:08;;;;;;;0.52;0.52;;;1.10;99.90;;;;;;6101465;23;20762;-84
2021/04/07 09:15:45;;;;;;;0.50;0.50;;;1.20;99.90;;;;;;6092519;23;20179;-83
2021/04/07 09:18:12;;;;;;;0.60;0.60;;;1.20;99.90;;;;;;6093750;23;20166;-82
2021/04/07 09:20:41;;;;;;;0.50;0.50;;;1.20;99.90;;;;;;6087008;23;20179;-82
2021/04/07 09:23:14;;;;;;;0.50;0.50;;;1.20;99.90;;;;;;6091010;23;20439;-83
2021/04/07 09:25:47;;;;;;;0.50;0.50;;;1.20;99.90;;;;;;6109365;23;20190;-85
2021/04/07 09:28:14;;;;;;;0.60;0.60;;;1.20;99.90;;;;;;6099290;23;20171;-82
2021/04/07 09:30:47;;;;;;;0.55;0.55;;;1.20;99.90;;;;;;6103007;23;20193;-83
2021/04/07 09:33:19;;;;;;;0.55;0.55;;;1.20;99.90;;;;;;6098150;23;20901;-83
2021/04/07 09:35:59;;;;;;;0.50;0.50;;;1.20;99.90;;;;;;6099176;23;20183;-83
2021/04/07 09:38:27;;;;;;;0.50;0.50;;;1.20;99.90;;;;;;6098394;23;20246;-83
2021/04/07 09:41:04;;;;;;;0.50;0.50;;;1.20;99.90;;;;;;6093739;23;20377;-82
2021/04/07 09:43:32;;;;;;;0.50;0.50;;;1.30;99.90;;;;;;6094116;23;20179;-82
2021/04/07 09:46:00;;;;;;;0.57;0.57;;;1.30;99.90;;;;;;6091243;23;20189;-81
2021/04/07 09:48:45;;;;;;;0.50;0.50;;;1.30;99.90;;;;;;6095878;23;20175;-82
2021/04/07 09:51:20;;;;;;;0.50;0.50;;;1.40;99.90;;;;;;6106962;23;20209;-83
2021/04/07 09:53:46;;;;;;;0.50;0.50;;;1.40;99.90;;;;;;6102699;23;20194;-84
2021/04/07 09:56:12;;;;;;;0.55;0.55;;;1.40;99.90;;;;;;6093752;23;20207;-81
2021/04/07 09:58:43;;;;;;;0.50;0.50;;;1.40;99.90;;;;;;6099283;23;20696;-82
2021/04/07 10:01:10;;;;;;;0.50;0.50;;;1.40;99.90;;;;;;6109671;23;20159;-82
2021/04/07 10:03:36;;;;;;;0.50;0.50;;;1.40;99.90;;;;;;6108103;23;20343;-82
2021/04/07 10:06:16;;;;;;;0.52;0.52;;;1.40;99.90;;;;;;6101299;23;20220;-83
2021/04/07 10:08:46;;;;;;;0.50;0.50;;;1.50;99.90;;;;;;6102766;23;20187;-82
2021/04/07 10:11:15;;;;;;;0.50;0.50;;;1.50;99.90;;;;;;6101746;23;20209;-81
2021/04/07 10:13:41;;;;;;;0.52;0.52;;;1.60;99.90;;;;;;6107223;23;20179;-82
2021/04/07 10:16:14;;;;;;;0.60;0.60;;;1.70;99.90;;;;;;6109542;23;20179;-82
2021/04/07 10:18:41;;;;;;;0.52;0.52;;;1.70;99.90;;;;;;6113859;23;20193;-83
2021/04/07 10:21:14;;;;;;;0.50;0.50;;;1.70;99.90;;;;;;6111455;23;20258;-83
2021/04/07 10:26:42;;;;;;;0.50;0.50;;;1.70;99.90;;;;;;6118556;22;20170;-81
2021/04/07 10:31:51;;;;;;;0.50;0.50;;;1.80;99.90;;;;;;6101376;23;20597;-83
2021/04/07 10:34:27;;;;;;;0.50;0.50;;;1.80;99.90;;;;;;6089310;23;20156;-85
2021/04/07 10:36:57;;;;;;;0.50;0.50;;;2.20;99.90;;;;;;6088794;23;20159;-84
2021/04/07 10:39:24;;;;;;;0.57;0.57;;;2.00;99.90;;;;;;6092640;23;20856;-81
2021/04/07 10:41:52;;;;;;;0.50;0.50;;;2.10;99.90;;;;;;6087361;23;20190;-83
2021/04/07 10:44:23;;;;;;;0.50;0.50;;;2.10;99.90;;;;;;6084196;23;20654;-80
2021/04/07 10:46:49;;;;;;;0.50;0.50;;;2.10;99.90;;;;;;6086674;23;20185;-80
2021/04/07 10:49:16;;;;;;;0.50;0.50;;;2.10;99.90;;;;;;6082328;23;20183;-81
2021/04/07 10:51:43;;;;;;;0.60;0.60;;;2.20;99.90;;;;;;6173753;23;20258;-80
2021/04/07 10:54:13;;;;;;;0.50;0.50;;;2.10;99.90;;;;;;6240162;23;20180;-80
2021/04/07 10:56:39;;;;;;;0.55;0.55;;;2.20;99.90;;;;;;6241175;23;20186;-80
2021/04/07 10:59:11;;;;;;;0.55;0.55;;;2.10;99.90;;;;;;6222972;23;20171;-85
2021/04/07 11:01:39;;;;;;;0.60;0.60;;;2.10;99.90;;;;;;6239325;23;20167;-81
2021/04/07 11:04:12;;;;;;;0.50;0.50;;;2.20;99.90;;;;;;6239378;23;20176;-83
2021/04/07 11:06:52;;;;;;;0.50;0.50;;;2.30;99.90;;;;;;6239995;23;20181;-85
2021/04/07 11:09:31;;;;;;;0.50;0.50;;;2.10;99.90;;;;;;6239733;23;20171;-83
2021/04/07 11:11:59;;;;;;;0.60;0.60;;;2.30;99.90;;;;;;6236256;23;20191;-85
2021/04/07 11:14:25;;;;;;;0.50;0.50;;;2.30;99.90;;;;;;6240035;23;20738;-84
2021/04/07 11:16:58;;;;;;;0.50;0.50;;;2.40;99.90;;;;;;6241990;23;20172;-83
2021/04/07 11:19:33;;;;;;;0.52;0.52;;;2.50;99.90;;;;;;6239550;22;20513;-84
2021/04/07 11:21:59;;;;;;;0.50;0.50;;;2.60;99.90;;;;;;6236217;23;20198;-84
2021/04/07 11:24:26;;;;;;;0.50;0.50;;;2.70;99.90;;;;;;6242230;23;20230;-84
2021/04/07 11:26:53;;;;;;;0.60;0.60;;;3.00;99.90;;;;;;6243902;23;20400;-84
2021/04/07 11:29:19;;;;;;;0.50;0.50;;;3.70;99.90;;;;;;6242809;23;20493;-84
2021/04/07 11:31:47;;;;;;;0.50;0.50;;;3.50;99.90;;;;;;6243359;22;20207;-83
2021/04/07 11:34:14;;;;;;;0.60;0.60;;;4.10;99.90;;;;;;6242924;23;20979;-83
2021/04/07 11:36:50;;;;;;;0.55;0.55;;;4.20;99.90;;;;;;6243609;23;20550;-83
2021/04/07 11:39:20;;;;;;;0.50;0.50;;;4.40;99.90;;;;;;6243450;23;20159;-83
2021/04/07 11:42:00;;;;;;;0.60;0.60;;;4.50;99.90;;;;;;6243904;23;20179;-84
2021/04/07 11:44:29;;;;;;;0.50;0.50;;;4.60;99.90;;;;;;6244162;23;20164;-83
2021/04/07 11:46:55;;;;;;;0.60;0.60;;;4.60;99.90;;;;;;6243523;23;20788;-84
2021/04/07 11:49:22;;;;;;;0.60;0.60;;;4.40;99.90;;;;;;6246224;23;20229;-83
2021/04/07 11:51:48;;;;;;;0.52;0.52;;;4.10;99.90;;;;;;6243351;23;20200;-84
2021/04/07 11:54:14;;;;;;;0.60;0.60;;;3.80;99.90;;;;;;6244042;22;20179;-86
2021/04/07 11:56:51;;;;;;;0.50;0.50;;;3.80;99.90;;;;;;6240201;23;20176;-82
2021/04/07 11:59:19;;;;;;;0.60;0.60;;;4.70;99.90;;;;;;6236997;23;20221;-83
2021/04/07 12:01:46;;;;;;;0.60;0.60;;;3.90;99.90;;;;;;6240513;23;20655;-82
2021/04/07 12:04:13;;;;;;;0.50;0.50;;;4.20;99.90;;;;;;6241466;23;20210;-82
2021/04/07 12:06:39;;;;;;;0.60;0.60;;;4.50;99.90;;;;;;6241816;23;20503;-82
2021/04/07 12:09:06;;;;;;;0.50;0.50;;;4.40;99.90;;;;;;6241396;23;20180;-82
2021/04/07 12:11:33;;;;;;;0.60;0.60;;;4.50;99.90;;;;;;6242132;23;20579;-82
2021/04/07 12:14:01;;;;;;;0.60;0.60;;;4.30;99.90;;;;;;6240944;23;20179;-82
2021/04/07 12:16:27;;;;;;;0.50;0.50;;;4.30;99.90;;;;;;6241340;23;20176;-83
2021/04/07 12:18:53;;;;;;;0.60;0.60;;;4.30;99.90;;;;;;6241284;23;20180;-82
2021/04/07 12:21:20;;;;;;;0.60;0.60;;;4.30;99.90;;;;;;6241261;23;20179;-82
2021/04/07 12:23:47;;;;;;;0.60;0.60;;;4.40;99.90;;;;;;6241849;23;20175;-82
2021/04/07 12:26:15;;;;;;;0.50;0.50;;;4.30;99.90;;;;;;6242094;23;20180;-82
2021/04/07 12:28:42;;;;;;;0.55;0.55;;;4.30;99.90;;;;;;6240168;23;20234;-82
2021/04/07 12:31:11;;;;;;;0.60;0.60;;;4.40;99.90;;;;;;6240721;22;20211;-82
2021/04/07 12:33:37;;;;;;;0.60;0.60;;;4.40;99.90;;;;;;6241076;23;20412;-82
2021/04/07 12:36:09;;;;;;;0.60;0.60;;;4.30;99.90;;;;;;6241616;23;20208;-82
2021/04/07 12:38:35;;;;;;;0.50;0.50;;;4.20;99.90;;;;;;6241209;23;20160;-82
2021/04/07 12:41:10;;;;;;;0.50;0.50;;;4.30;99.90;;;;;;6241515;23;20553;-82
2021/04/07 12:43:36;;;;;;;0.55;0.55;;;4.50;99.90;;;;;;6240399;23;20163;-82
2021/04/07 12:46:02;;;;;;;0.57;0.57;;;4.60;99.90;;;;;;6241793;23;20187;-82
2021/04/07 12:48:29;;;;;;;0.60;0.60;;;4.60;99.90;;;;;;6241005;23;20727;-82
2021/04/07 12:50:56;;;;;;;0.50;0.50;;;4.60;99.90;;;;;;6241212;23;20203;-82
2021/04/07 12:53:22;;;;;;;0.60;0.60;;;4.50;99.90;;;;;;6240959;23;20367;-82
2021/04/07 12:55:50;;;;;;;0.60;0.60;;;4.50;99.90;;;;;;6241700;23;20183;-83
2021/04/07 12:58:16;;;;;;;0.60;0.60;;;4.30;99.90;;;;;;6240717;23;20191;-82
2021/04/07 13:00:42;;;;;;;0.60;0.60;;;4.20;99.90;;;;;;6241109;23;20179;-82
2021/04/07 13:03:09;;;;;;;0.55;0.55;;;4.10;99.90;;;;;;6240882;23;20597;-82